sensor_id;sensor_type;location;lat;lon;timestamp;P1;durP1;ratioP1;P2;durP2;ratioP2
3922;SDS011;1976;51.694;6.256;2022-12-18T00:00:42;8.10;;;4.93;;
3922;SDS011;1976;51.694;6.256;2022-12-18T00:03:09;29.23;;;11.40;;
3922;SDS011;1976;51.694;6.256;2022-12-18T00:05:35;16.60;;;7.30;;
3922;SDS011;1976;51.694;6.256;2022-12-18T00:08:01;20.70;;;9.77;;
3922;SDS011;1976;51.694;6.256;2022-12-18T00:10:28;22.77;;;10.83;;
3922;SDS011;1976;51.694;6.256;2022-12-18T00:12:53;13.73;;;7.47;;
3922;SDS011;1976;51.694;6.256;2022-12-18T00:15:19;14.83;;;8.77;;
3922;SDS011;1976;51.694;6.256;2022-12-18T00:17:45;15.63;;;9.40;;
3922;SDS011;1976;51.694;6.256;2022-12-18T00:20:10;20.60;;;9.80;;
3922;SDS011;1976;51.694;6.256;2022-12-18T00:22:36;10.40;;;5.10;;
3922;SDS011;1976;51.694;6.256;2022-12-18T00:25:02;16.93;;;7.80;;
3922;SDS011;1976;51.694;6.256;2022-12-18T00:27:28;20.67;;;8.33;;
3922;SDS011;1976;51.694;6.256;2022-12-18T00:29:53;5.20;;;4.10;;
3922;SDS011;1976;51.694;6.256;2022-12-18T00:32:19;19.23;;;8.93;;
3922;SDS011;1976;51.694;6.256;2022-12-18T00:34:45;21.60;;;9.43;;
3922;SDS011;1976;51.694;6.256;2022-12-18T00:37:10;14.27;;;8.63;;
3922;SDS011;1976;51.694;6.256;2022-12-18T00:39:36;23.40;;;8.20;;
3922;SDS011;1976;51.694;6.256;2022-12-18T00:42:01;17.23;;;9.00;;
3922;SDS011;1976;51.694;6.256;2022-12-18T00:44:45;14.00;;;7.67;;
3922;SDS011;1976;51.694;6.256;2022-12-18T00:47:11;17.83;;;9.97;;
3922;SDS011;1976;51.694;6.256;2022-12-18T00:49:37;14.17;;;7.80;;
3922;SDS011;1976;51.694;6.256;2022-12-18T00:52:02;18.67;;;5.30;;
3922;SDS011;1976;51.694;6.256;2022-12-18T00:54:28;2.93;;;1.77;;
3922;SDS011;1976;51.694;6.256;2022-12-18T00:56:53;13.50;;;5.90;;
3922;SDS011;1976;51.694;6.256;2022-12-18T00:59:20;15.30;;;8.77;;
3922;SDS011;1976;51.694;6.256;2022-12-18T01:01:46;2.87;;;2.70;;
3922;SDS011;1976;51.694;6.256;2022-12-18T01:04:11;12.70;;;6.73;;
3922;SDS011;1976;51.694;6.256;2022-12-18T01:06:37;5.47;;;4.93;;
3922;SDS011;1976;51.694;6.256;2022-12-18T01:09:03;11.03;;;5.20;;
3922;SDS011;1976;51.694;6.256;2022-12-18T01:11:29;9.77;;;5.97;;
3922;SDS011;1976;51.694;6.256;2022-12-18T01:13:54;16.33;;;7.90;;
3922;SDS011;1976;51.694;6.256;2022-12-18T01:16:20;10.10;;;6.10;;
3922;SDS011;1976;51.694;6.256;2022-12-18T01:18:46;11.63;;;6.53;;
3922;SDS011;1976;51.694;6.256;2022-12-18T01:21:14;19.20;;;8.47;;
3922;SDS011;1976;51.694;6.256;2022-12-18T01:23:41;12.97;;;7.17;;
3922;SDS011;1976;51.694;6.256;2022-12-18T01:26:11;7.70;;;4.70;;
3922;SDS011;1976;51.694;6.256;2022-12-18T01:28:39;8.60;;;5.27;;
3922;SDS011;1976;51.694;6.256;2022-12-18T01:31:12;4.10;;;3.70;;
3922;SDS011;1976;51.694;6.256;2022-12-18T01:33:38;13.23;;;5.47;;
3922;SDS011;1976;51.694;6.256;2022-12-18T01:36:04;17.37;;;4.83;;
3922;SDS011;1976;51.694;6.256;2022-12-18T01:38:30;5.13;;;3.13;;
3922;SDS011;1976;51.694;6.256;2022-12-18T01:40:59;2.63;;;2.20;;
3922;SDS011;1976;51.694;6.256;2022-12-18T01:46:06;4.33;;;2.93;;
3922;SDS011;1976;51.694;6.256;2022-12-18T01:48:32;4.97;;;3.50;;
3922;SDS011;1976;51.694;6.256;2022-12-18T01:51:01;3.57;;;3.20;;
3922;SDS011;1976;51.694;6.256;2022-12-18T01:53:26;4.60;;;3.67;;
3922;SDS011;1976;51.694;6.256;2022-12-18T01:55:53;5.37;;;2.30;;
3922;SDS011;1976;51.694;6.256;2022-12-18T02:01:06;6.10;;;4.53;;
3922;SDS011;1976;51.694;6.256;2022-12-18T02:03:32;7.20;;;4.10;;
3922;SDS011;1976;51.694;6.256;2022-12-18T02:06:05;5.33;;;3.40;;
3922;SDS011;1976;51.694;6.256;2022-12-18T02:09:20;4.83;;;4.33;;
3922;SDS011;1976;51.694;6.256;2022-12-18T02:12:23;1.50;;;1.40;;
3922;SDS011;1976;51.694;6.256;2022-12-18T02:14:28;6.13;;;3.30;;
3922;SDS011;1976;51.694;6.256;2022-12-18T02:17:07;2.93;;;2.10;;
3922;SDS011;1976;51.694;6.256;2022-12-18T02:25:04;7.20;;;4.63;;
3922;SDS011;1976;51.694;6.256;2022-12-18T02:27:46;6.20;;;5.40;;
3922;SDS011;1976;51.694;6.256;2022-12-18T02:30:15;2.07;;;1.93;;
3922;SDS011;1976;51.694;6.256;2022-12-18T02:32:47;6.13;;;4.17;;
3922;SDS011;1976;51.694;6.256;2022-12-18T02:35:17;6.33;;;4.00;;
3922;SDS011;1976;51.694;6.256;2022-12-18T02:37:47;7.03;;;5.03;;
3922;SDS011;1976;51.694;6.256;2022-12-18T02:40:13;9.03;;;5.00;;
3922;SDS011;1976;51.694;6.256;2022-12-18T02:42:40;7.20;;;5.37;;
3922;SDS011;1976;51.694;6.256;2022-12-18T02:45:06;11.63;;;5.27;;
3922;SDS011;1976;51.694;6.256;2022-12-18T02:47:32;8.17;;;3.27;;
3922;SDS011;1976;51.694;6.256;2022-12-18T02:58:34;12.37;;;5.60;;
3922;SDS011;1976;51.694;6.256;2022-12-18T03:03:52;12.03;;;3.40;;
3922;SDS011;1976;51.694;6.256;2022-12-18T03:06:26;4.97;;;4.47;;
3922;SDS011;1976;51.694;6.256;2022-12-18T03:08:56;5.23;;;3.03;;
3922;SDS011;1976;51.694;6.256;2022-12-18T03:11:45;9.80;;;5.40;;
3922;SDS011;1976;51.694;6.256;2022-12-18T03:14:35;9.37;;;5.20;;
3922;SDS011;1976;51.694;6.256;2022-12-18T03:17:03;17.63;;;6.50;;
3922;SDS011;1976;51.694;6.256;2022-12-18T03:19:32;13.03;;;4.63;;
3922;SDS011;1976;51.694;6.256;2022-12-18T03:22:00;12.50;;;6.73;;
3922;SDS011;1976;51.694;6.256;2022-12-18T03:24:28;12.30;;;6.00;;
3922;SDS011;1976;51.694;6.256;2022-12-18T03:26:57;10.10;;;4.20;;
3922;SDS011;1976;51.694;6.256;2022-12-18T03:29:34;5.80;;;2.97;;
3922;SDS011;1976;51.694;6.256;2022-12-18T03:32:06;8.20;;;4.60;;
3922;SDS011;1976;51.694;6.256;2022-12-18T03:34:36;18.67;;;5.23;;
3922;SDS011;1976;51.694;6.256;2022-12-18T03:37:05;9.90;;;6.20;;
3922;SDS011;1976;51.694;6.256;2022-12-18T03:39:33;6.97;;;4.60;;
3922;SDS011;1976;51.694;6.256;2022-12-18T03:44:29;10.20;;;6.27;;
3922;SDS011;1976;51.694;6.256;2022-12-18T03:47:06;9.20;;;5.07;;
3922;SDS011;1976;51.694;6.256;2022-12-18T03:52:22;12.03;;;6.30;;
3922;SDS011;1976;51.694;6.256;2022-12-18T03:55:07;20.13;;;5.17;;
3922;SDS011;1976;51.694;6.256;2022-12-18T03:57:34;8.30;;;6.13;;
3922;SDS011;1976;51.694;6.256;2022-12-18T04:00:11;10.10;;;6.60;;
3922;SDS011;1976;51.694;6.256;2022-12-18T04:02:41;5.60;;;3.80;;
3922;SDS011;1976;51.694;6.256;2022-12-18T04:05:16;13.37;;;5.73;;
3922;SDS011;1976;51.694;6.256;2022-12-18T04:07:43;9.37;;;4.43;;
3922;SDS011;1976;51.694;6.256;2022-12-18T04:10:11;6.53;;;3.80;;
3922;SDS011;1976;51.694;6.256;2022-12-18T04:12:38;11.03;;;6.10;;
3922;SDS011;1976;51.694;6.256;2022-12-18T04:15:05;7.00;;;3.03;;
3922;SDS011;1976;51.694;6.256;2022-12-18T04:17:31;14.00;;;5.60;;
3922;SDS011;1976;51.694;6.256;2022-12-18T04:19:57;9.50;;;5.90;;
3922;SDS011;1976;51.694;6.256;2022-12-18T04:22:22;18.57;;;5.97;;
3922;SDS011;1976;51.694;6.256;2022-12-18T04:24:48;13.03;;;4.90;;
3922;SDS011;1976;51.694;6.256;2022-12-18T04:27:13;6.70;;;4.70;;
3922;SDS011;1976;51.694;6.256;2022-12-18T04:29:39;5.43;;;3.70;;
3922;SDS011;1976;51.694;6.256;2022-12-18T04:32:05;18.03;;;7.70;;
3922;SDS011;1976;51.694;6.256;2022-12-18T04:34:30;7.10;;;4.73;;
3922;SDS011;1976;51.694;6.256;2022-12-18T04:36:56;5.77;;;4.20;;
3922;SDS011;1976;51.694;6.256;2022-12-18T04:39:21;10.37;;;5.83;;
3922;SDS011;1976;51.694;6.256;2022-12-18T04:41:47;7.57;;;4.73;;
3922;SDS011;1976;51.694;6.256;2022-12-18T04:44:13;39.87;;;5.17;;
3922;SDS011;1976;51.694;6.256;2022-12-18T04:46:38;9.53;;;5.57;;
3922;SDS011;1976;51.694;6.256;2022-12-18T04:49:04;4.73;;;4.20;;
3922;SDS011;1976;51.694;6.256;2022-12-18T04:51:30;6.70;;;4.67;;
3922;SDS011;1976;51.694;6.256;2022-12-18T04:53:56;8.40;;;4.57;;
3922;SDS011;1976;51.694;6.256;2022-12-18T04:56:22;14.33;;;7.20;;
3922;SDS011;1976;51.694;6.256;2022-12-18T04:58:47;13.43;;;5.33;;
3922;SDS011;1976;51.694;6.256;2022-12-18T05:01:16;4.57;;;4.00;;
3922;SDS011;1976;51.694;6.256;2022-12-18T05:03:42;4.23;;;3.83;;
3922;SDS011;1976;51.694;6.256;2022-12-18T05:06:08;2.57;;;2.33;;
3922;SDS011;1976;51.694;6.256;2022-12-18T05:08:34;10.57;;;6.10;;
3922;SDS011;1976;51.694;6.256;2022-12-18T05:11:01;5.60;;;3.83;;
3922;SDS011;1976;51.694;6.256;2022-12-18T05:13:28;8.87;;;4.67;;
3922;SDS011;1976;51.694;6.256;2022-12-18T05:15:54;5.33;;;3.33;;
3922;SDS011;1976;51.694;6.256;2022-12-18T05:18:21;10.80;;;4.70;;
3922;SDS011;1976;51.694;6.256;2022-12-18T05:20:48;8.20;;;4.80;;
3922;SDS011;1976;51.694;6.256;2022-12-18T05:23:18;15.43;;;6.33;;
3922;SDS011;1976;51.694;6.256;2022-12-18T05:25:50;8.77;;;5.00;;
3922;SDS011;1976;51.694;6.256;2022-12-18T05:28:21;20.90;;;7.00;;
3922;SDS011;1976;51.694;6.256;2022-12-18T05:30:51;4.47;;;3.63;;
3922;SDS011;1976;51.694;6.256;2022-12-18T05:33:18;9.93;;;5.73;;
3922;SDS011;1976;51.694;6.256;2022-12-18T05:35:44;9.20;;;3.60;;
3922;SDS011;1976;51.694;6.256;2022-12-18T05:38:19;7.13;;;5.33;;
3922;SDS011;1976;51.694;6.256;2022-12-18T05:40:47;15.50;;;4.60;;
3922;SDS011;1976;51.694;6.256;2022-12-18T05:43:13;2.03;;;1.93;;
3922;SDS011;1976;51.694;6.256;2022-12-18T05:45:39;3.10;;;2.47;;
3922;SDS011;1976;51.694;6.256;2022-12-18T05:48:05;3.73;;;3.37;;
3922;SDS011;1976;51.694;6.256;2022-12-18T05:50:35;9.23;;;4.40;;
3922;SDS011;1976;51.694;6.256;2022-12-18T05:53:02;4.17;;;3.23;;
3922;SDS011;1976;51.694;6.256;2022-12-18T05:55:28;8.83;;;5.30;;
3922;SDS011;1976;51.694;6.256;2022-12-18T05:57:53;4.57;;;3.33;;
3922;SDS011;1976;51.694;6.256;2022-12-18T06:00:19;5.17;;;4.03;;
3922;SDS011;1976;51.694;6.256;2022-12-18T06:02:47;5.00;;;4.03;;
3922;SDS011;1976;51.694;6.256;2022-12-18T06:05:13;8.47;;;5.87;;
3922;SDS011;1976;51.694;6.256;2022-12-18T06:07:39;7.67;;;4.97;;
3922;SDS011;1976;51.694;6.256;2022-12-18T06:10:05;8.37;;;5.07;;
3922;SDS011;1976;51.694;6.256;2022-12-18T06:12:31;7.40;;;4.03;;
3922;SDS011;1976;51.694;6.256;2022-12-18T06:14:58;10.93;;;5.90;;
3922;SDS011;1976;51.694;6.256;2022-12-18T06:17:28;9.47;;;5.40;;
3922;SDS011;1976;51.694;6.256;2022-12-18T06:19:54;7.37;;;5.33;;
3922;SDS011;1976;51.694;6.256;2022-12-18T06:22:20;14.30;;;4.13;;
3922;SDS011;1976;51.694;6.256;2022-12-18T06:24:46;6.83;;;4.60;;
3922;SDS011;1976;51.694;6.256;2022-12-18T06:27:12;5.23;;;3.50;;
3922;SDS011;1976;51.694;6.256;2022-12-18T06:29:37;6.27;;;3.87;;
3922;SDS011;1976;51.694;6.256;2022-12-18T06:32:03;6.30;;;4.47;;
3922;SDS011;1976;51.694;6.256;2022-12-18T06:34:29;5.47;;;3.70;;
3922;SDS011;1976;51.694;6.256;2022-12-18T06:36:54;4.10;;;3.13;;
3922;SDS011;1976;51.694;6.256;2022-12-18T06:39:20;6.73;;;3.00;;
3922;SDS011;1976;51.694;6.256;2022-12-18T06:41:45;3.33;;;3.03;;
3922;SDS011;1976;51.694;6.256;2022-12-18T06:44:11;4.43;;;3.03;;
3922;SDS011;1976;51.694;6.256;2022-12-18T06:46:37;2.90;;;2.47;;
3922;SDS011;1976;51.694;6.256;2022-12-18T06:49:03;6.50;;;4.70;;
3922;SDS011;1976;51.694;6.256;2022-12-18T06:51:28;3.10;;;2.80;;
3922;SDS011;1976;51.694;6.256;2022-12-18T06:53:54;4.40;;;3.43;;
3922;SDS011;1976;51.694;6.256;2022-12-18T06:56:20;2.80;;;2.60;;
3922;SDS011;1976;51.694;6.256;2022-12-18T06:58:45;5.40;;;2.90;;
3922;SDS011;1976;51.694;6.256;2022-12-18T07:01:11;8.70;;;3.33;;
3922;SDS011;1976;51.694;6.256;2022-12-18T07:03:38;3.80;;;3.47;;
3922;SDS011;1976;51.694;6.256;2022-12-18T07:06:04;26.33;;;5.30;;
3922;SDS011;1976;51.694;6.256;2022-12-18T07:08:31;2.03;;;1.90;;
3922;SDS011;1976;51.694;6.256;2022-12-18T07:10:57;2.67;;;2.00;;
3922;SDS011;1976;51.694;6.256;2022-12-18T07:13:23;4.73;;;3.53;;
3922;SDS011;1976;51.694;6.256;2022-12-18T07:15:49;2.87;;;2.43;;
3922;SDS011;1976;51.694;6.256;2022-12-18T07:18:15;3.07;;;2.40;;
3922;SDS011;1976;51.694;6.256;2022-12-18T07:20:41;7.07;;;3.67;;
3922;SDS011;1976;51.694;6.256;2022-12-18T07:23:07;3.70;;;2.80;;
3922;SDS011;1976;51.694;6.256;2022-12-18T07:25:34;4.20;;;3.57;;
3922;SDS011;1976;51.694;6.256;2022-12-18T07:28:00;1.00;;;1.00;;
3922;SDS011;1976;51.694;6.256;2022-12-18T07:30:26;5.80;;;3.33;;
3922;SDS011;1976;51.694;6.256;2022-12-18T07:32:52;3.57;;;3.23;;
3922;SDS011;1976;51.694;6.256;2022-12-18T07:35:18;4.10;;;2.73;;
3922;SDS011;1976;51.694;6.256;2022-12-18T07:37:45;7.87;;;4.40;;
3922;SDS011;1976;51.694;6.256;2022-12-18T07:40:11;9.73;;;4.47;;
3922;SDS011;1976;51.694;6.256;2022-12-18T07:42:37;11.40;;;4.77;;
3922;SDS011;1976;51.694;6.256;2022-12-18T07:45:03;7.03;;;3.77;;
3922;SDS011;1976;51.694;6.256;2022-12-18T07:47:36;2.60;;;2.40;;
3922;SDS011;1976;51.694;6.256;2022-12-18T07:50:02;7.07;;;3.43;;
3922;SDS011;1976;51.694;6.256;2022-12-18T07:52:28;3.77;;;2.70;;
3922;SDS011;1976;51.694;6.256;2022-12-18T07:54:54;7.40;;;3.20;;
3922;SDS011;1976;51.694;6.256;2022-12-18T07:57:20;3.23;;;1.70;;
3922;SDS011;1976;51.694;6.256;2022-12-18T07:59:46;3.43;;;3.10;;
3922;SDS011;1976;51.694;6.256;2022-12-18T08:02:12;5.00;;;3.37;;
3922;SDS011;1976;51.694;6.256;2022-12-18T08:04:38;4.37;;;3.80;;
3922;SDS011;1976;51.694;6.256;2022-12-18T08:07:04;10.20;;;5.10;;
3922;SDS011;1976;51.694;6.256;2022-12-18T08:09:30;1.73;;;1.63;;
3922;SDS011;1976;51.694;6.256;2022-12-18T08:11:56;5.50;;;3.30;;
3922;SDS011;1976;51.694;6.256;2022-12-18T08:14:23;7.07;;;4.90;;
3922;SDS011;1976;51.694;6.256;2022-12-18T08:16:49;2.63;;;2.40;;
3922;SDS011;1976;51.694;6.256;2022-12-18T08:19:15;2.73;;;2.50;;
3922;SDS011;1976;51.694;6.256;2022-12-18T08:21:41;3.67;;;2.47;;
3922;SDS011;1976;51.694;6.256;2022-12-18T08:24:08;4.00;;;3.70;;
3922;SDS011;1976;51.694;6.256;2022-12-18T08:26:36;5.20;;;4.00;;
3922;SDS011;1976;51.694;6.256;2022-12-18T08:29:02;12.07;;;3.97;;
3922;SDS011;1976;51.694;6.256;2022-12-18T08:31:28;5.80;;;4.53;;
3922;SDS011;1976;51.694;6.256;2022-12-18T08:33:55;3.63;;;3.00;;
3922;SDS011;1976;51.694;6.256;2022-12-18T08:36:21;6.07;;;3.40;;
3922;SDS011;1976;51.694;6.256;2022-12-18T08:38:48;4.43;;;3.73;;
3922;SDS011;1976;51.694;6.256;2022-12-18T08:41:15;8.13;;;3.43;;
3922;SDS011;1976;51.694;6.256;2022-12-18T08:43:41;3.97;;;3.60;;
3922;SDS011;1976;51.694;6.256;2022-12-18T08:46:26;2.13;;;1.90;;
3922;SDS011;1976;51.694;6.256;2022-12-18T08:48:53;12.13;;;4.27;;
3922;SDS011;1976;51.694;6.256;2022-12-18T08:51:22;4.60;;;1.97;;
3922;SDS011;1976;51.694;6.256;2022-12-18T08:53:49;4.87;;;3.67;;
3922;SDS011;1976;51.694;6.256;2022-12-18T08:56:15;8.60;;;4.10;;
3922;SDS011;1976;51.694;6.256;2022-12-18T08:58:41;3.97;;;3.30;;
3922;SDS011;1976;51.694;6.256;2022-12-18T09:01:08;4.93;;;2.60;;
3922;SDS011;1976;51.694;6.256;2022-12-18T09:03:36;5.53;;;4.00;;
3922;SDS011;1976;51.694;6.256;2022-12-18T09:06:02;4.67;;;4.13;;
3922;SDS011;1976;51.694;6.256;2022-12-18T09:08:29;4.30;;;2.73;;
3922;SDS011;1976;51.694;6.256;2022-12-18T09:10:55;3.13;;;2.80;;
3922;SDS011;1976;51.694;6.256;2022-12-18T09:13:21;5.77;;;4.17;;
3922;SDS011;1976;51.694;6.256;2022-12-18T09:15:48;5.80;;;3.47;;
3922;SDS011;1976;51.694;6.256;2022-12-18T09:18:16;6.13;;;3.47;;
3922;SDS011;1976;51.694;6.256;2022-12-18T09:20:44;4.10;;;3.47;;
3922;SDS011;1976;51.694;6.256;2022-12-18T09:23:10;5.30;;;4.40;;
3922;SDS011;1976;51.694;6.256;2022-12-18T09:25:36;6.23;;;4.60;;
3922;SDS011;1976;51.694;6.256;2022-12-18T09:28:03;8.73;;;5.30;;
3922;SDS011;1976;51.694;6.256;2022-12-18T09:30:44;8.80;;;5.23;;
3922;SDS011;1976;51.694;6.256;2022-12-18T09:33:11;9.53;;;6.03;;
3922;SDS011;1976;51.694;6.256;2022-12-18T09:35:41;4.10;;;3.20;;
3922;SDS011;1976;51.694;6.256;2022-12-18T09:38:08;4.87;;;3.53;;
3922;SDS011;1976;51.694;6.256;2022-12-18T09:40:49;8.97;;;6.03;;
3922;SDS011;1976;51.694;6.256;2022-12-18T09:43:22;7.27;;;4.77;;
3922;SDS011;1976;51.694;6.256;2022-12-18T09:46:14;6.10;;;4.60;;
3922;SDS011;1976;51.694;6.256;2022-12-18T09:48:45;6.60;;;4.17;;
3922;SDS011;1976;51.694;6.256;2022-12-18T09:51:14;5.00;;;3.33;;
3922;SDS011;1976;51.694;6.256;2022-12-18T09:53:41;3.13;;;2.83;;
3922;SDS011;1976;51.694;6.256;2022-12-18T09:56:12;9.67;;;5.10;;
3922;SDS011;1976;51.694;6.256;2022-12-18T09:58:45;6.50;;;3.40;;
3922;SDS011;1976;51.694;6.256;2022-12-18T10:01:15;3.77;;;2.63;;
3922;SDS011;1976;51.694;6.256;2022-12-18T10:03:47;8.83;;;5.53;;
3922;SDS011;1976;51.694;6.256;2022-12-18T10:20:03;9.80;;;4.97;;
3922;SDS011;1976;51.694;6.256;2022-12-18T10:28:13;4.70;;;3.90;;
3922;SDS011;1976;51.694;6.256;2022-12-18T10:30:40;9.17;;;4.77;;
3922;SDS011;1976;51.694;6.256;2022-12-18T10:33:17;6.30;;;3.77;;
3922;SDS011;1976;51.694;6.256;2022-12-18T10:35:45;8.40;;;3.93;;
3922;SDS011;1976;51.694;6.256;2022-12-18T10:40:49;4.60;;;2.70;;
3922;SDS011;1976;51.694;6.256;2022-12-18T10:43:15;4.57;;;3.70;;
3922;SDS011;1976;51.694;6.256;2022-12-18T10:45:56;4.07;;;3.03;;
3922;SDS011;1976;51.694;6.256;2022-12-18T10:48:27;10.57;;;5.20;;
3922;SDS011;1976;51.694;6.256;2022-12-18T10:50:55;8.03;;;4.83;;
3922;SDS011;1976;51.694;6.256;2022-12-18T10:53:22;6.43;;;4.80;;
3922;SDS011;1976;51.694;6.256;2022-12-18T10:55:50;6.73;;;3.30;;
3922;SDS011;1976;51.694;6.256;2022-12-18T11:01:02;11.00;;;5.37;;
3922;SDS011;1976;51.694;6.256;2022-12-18T11:06:02;7.03;;;5.10;;
3922;SDS011;1976;51.694;6.256;2022-12-18T11:08:39;3.43;;;2.60;;
3922;SDS011;1976;51.694;6.256;2022-12-18T11:11:07;3.73;;;2.80;;
3922;SDS011;1976;51.694;6.256;2022-12-18T11:13:41;4.90;;;3.27;;
3922;SDS011;1976;51.694;6.256;2022-12-18T11:16:19;9.33;;;4.13;;
3922;SDS011;1976;51.694;6.256;2022-12-18T11:18:45;7.53;;;4.23;;
3922;SDS011;1976;51.694;6.256;2022-12-18T11:21:11;6.77;;;3.57;;
3922;SDS011;1976;51.694;6.256;2022-12-18T11:23:44;17.83;;;7.53;;
3922;SDS011;1976;51.694;6.256;2022-12-18T11:26:14;8.87;;;3.40;;
3922;SDS011;1976;51.694;6.256;2022-12-18T11:28:40;8.30;;;5.43;;
3922;SDS011;1976;51.694;6.256;2022-12-18T11:33:52;8.00;;;4.77;;
3922;SDS011;1976;51.694;6.256;2022-12-18T11:36:22;10.90;;;5.60;;
3922;SDS011;1976;51.694;6.256;2022-12-18T11:38:51;17.40;;;5.60;;
3922;SDS011;1976;51.694;6.256;2022-12-18T11:44:15;9.93;;;6.23;;
3922;SDS011;1976;51.694;6.256;2022-12-18T11:46:51;10.67;;;5.50;;
3922;SDS011;1976;51.694;6.256;2022-12-18T11:49:25;7.23;;;4.73;;
3922;SDS011;1976;51.694;6.256;2022-12-18T11:54:26;3.80;;;3.07;;
3922;SDS011;1976;51.694;6.256;2022-12-18T11:56:58;6.43;;;4.07;;
3922;SDS011;1976;51.694;6.256;2022-12-18T11:59:33;11.37;;;5.80;;
3922;SDS011;1976;51.694;6.256;2022-12-18T12:02:17;6.67;;;4.77;;
3922;SDS011;1976;51.694;6.256;2022-12-18T12:04:50;11.77;;;7.00;;
3922;SDS011;1976;51.694;6.256;2022-12-18T12:08:08;6.27;;;3.50;;
3922;SDS011;1976;51.694;6.256;2022-12-18T12:13:19;13.10;;;6.50;;
3922;SDS011;1976;51.694;6.256;2022-12-18T12:16:02;7.50;;;3.40;;
3922;SDS011;1976;51.694;6.256;2022-12-18T12:21:46;6.97;;;3.97;;
3922;SDS011;1976;51.694;6.256;2022-12-18T12:24:39;6.10;;;3.53;;
3922;SDS011;1976;51.694;6.256;2022-12-18T12:40:56;10.03;;;6.27;;
3922;SDS011;1976;51.694;6.256;2022-12-18T12:43:38;6.83;;;4.90;;
3922;SDS011;1976;51.694;6.256;2022-12-18T12:46:11;6.27;;;3.77;;
3922;SDS011;1976;51.694;6.256;2022-12-18T12:51:20;7.03;;;4.40;;
3922;SDS011;1976;51.694;6.256;2022-12-18T12:53:49;6.20;;;4.30;;
3922;SDS011;1976;51.694;6.256;2022-12-18T12:56:15;13.73;;;6.53;;
3922;SDS011;1976;51.694;6.256;2022-12-18T12:58:57;5.60;;;3.60;;
3922;SDS011;1976;51.694;6.256;2022-12-18T13:01:46;5.27;;;4.33;;
3922;SDS011;1976;51.694;6.256;2022-12-18T13:04:42;5.30;;;4.50;;
3922;SDS011;1976;51.694;6.256;2022-12-18T13:12:36;6.43;;;4.30;;
3922;SDS011;1976;51.694;6.256;2022-12-18T13:15:21;11.53;;;6.07;;
3922;SDS011;1976;51.694;6.256;2022-12-18T13:17:47;5.53;;;3.07;;
3922;SDS011;1976;51.694;6.256;2022-12-18T13:20:14;15.37;;;6.47;;
3922;SDS011;1976;51.694;6.256;2022-12-18T13:22:44;15.50;;;7.40;;
3922;SDS011;1976;51.694;6.256;2022-12-18T13:25:55;11.77;;;5.23;;
3922;SDS011;1976;51.694;6.256;2022-12-18T13:28:04;11.83;;;5.87;;
3922;SDS011;1976;51.694;6.256;2022-12-18T13:38:22;8.77;;;5.30;;
3922;SDS011;1976;51.694;6.256;2022-12-18T13:45:47;13.60;;;5.57;;
3922;SDS011;1976;51.694;6.256;2022-12-18T13:48:31;20.30;;;7.40;;
3922;SDS011;1976;51.694;6.256;2022-12-18T13:51:06;12.63;;;7.63;;
3922;SDS011;1976;51.694;6.256;2022-12-18T13:56:42;10.50;;;7.53;;
3922;SDS011;1976;51.694;6.256;2022-12-18T14:01:41;10.80;;;6.23;;
3922;SDS011;1976;51.694;6.256;2022-12-18T14:04:12;8.53;;;4.90;;
3922;SDS011;1976;51.694;6.256;2022-12-18T14:06:44;10.30;;;4.90;;
3922;SDS011;1976;51.694;6.256;2022-12-18T14:09:18;8.30;;;6.00;;
3922;SDS011;1976;51.694;6.256;2022-12-18T14:11:48;20.73;;;6.50;;
3922;SDS011;1976;51.694;6.256;2022-12-18T14:14:16;15.50;;;7.03;;
3922;SDS011;1976;51.694;6.256;2022-12-18T14:16:42;10.77;;;6.10;;
3922;SDS011;1976;51.694;6.256;2022-12-18T14:19:10;9.33;;;5.00;;
3922;SDS011;1976;51.694;6.256;2022-12-18T14:21:37;11.07;;;6.87;;
3922;SDS011;1976;51.694;6.256;2022-12-18T14:26:30;8.10;;;4.40;;
3922;SDS011;1976;51.694;6.256;2022-12-18T14:28:57;15.63;;;8.90;;
3922;SDS011;1976;51.694;6.256;2022-12-18T14:31:30;9.47;;;6.67;;
3922;SDS011;1976;51.694;6.256;2022-12-18T14:33:56;9.83;;;5.70;;
3922;SDS011;1976;51.694;6.256;2022-12-18T14:36:23;8.97;;;4.87;;
3922;SDS011;1976;51.694;6.256;2022-12-18T14:38:52;8.23;;;5.10;;
3922;SDS011;1976;51.694;6.256;2022-12-18T14:41:23;6.47;;;4.87;;
3922;SDS011;1976;51.694;6.256;2022-12-18T14:43:50;10.60;;;5.87;;
3922;SDS011;1976;51.694;6.256;2022-12-18T14:49:03;7.40;;;3.87;;
3922;SDS011;1976;51.694;6.256;2022-12-18T14:51:29;5.90;;;4.67;;
3922;SDS011;1976;51.694;6.256;2022-12-18T14:53:57;9.10;;;5.50;;
3922;SDS011;1976;51.694;6.256;2022-12-18T14:56:31;11.87;;;7.40;;
3922;SDS011;1976;51.694;6.256;2022-12-18T15:01:46;11.77;;;6.93;;
3922;SDS011;1976;51.694;6.256;2022-12-18T15:04:46;11.07;;;6.50;;
3922;SDS011;1976;51.694;6.256;2022-12-18T15:07:19;8.37;;;6.23;;
3922;SDS011;1976;51.694;6.256;2022-12-18T15:10:08;4.50;;;3.80;;
3922;SDS011;1976;51.694;6.256;2022-12-18T15:12:36;11.53;;;6.23;;
3922;SDS011;1976;51.694;6.256;2022-12-18T15:15:05;9.20;;;6.40;;
3922;SDS011;1976;51.694;6.256;2022-12-18T15:17:57;13.73;;;5.57;;
3922;SDS011;1976;51.694;6.256;2022-12-18T15:20:48;5.17;;;3.47;;
3922;SDS011;1976;51.694;6.256;2022-12-18T15:26:08;9.07;;;5.43;;
3922;SDS011;1976;51.694;6.256;2022-12-18T15:33:41;10.53;;;6.60;;
3922;SDS011;1976;51.694;6.256;2022-12-18T15:36:28;6.83;;;3.67;;
3922;SDS011;1976;51.694;6.256;2022-12-18T15:38:55;8.90;;;6.50;;
3922;SDS011;1976;51.694;6.256;2022-12-18T15:41:22;10.67;;;6.37;;
3922;SDS011;1976;51.694;6.256;2022-12-18T15:43:49;6.57;;;5.60;;
3922;SDS011;1976;51.694;6.256;2022-12-18T15:46:17;7.07;;;3.43;;
3922;SDS011;1976;51.694;6.256;2022-12-18T15:48:44;9.73;;;5.87;;
3922;SDS011;1976;51.694;6.256;2022-12-18T15:51:18;9.20;;;6.20;;
3922;SDS011;1976;51.694;6.256;2022-12-18T15:53:46;12.70;;;6.57;;
3922;SDS011;1976;51.694;6.256;2022-12-18T15:56:15;12.40;;;6.53;;
3922;SDS011;1976;51.694;6.256;2022-12-18T15:59:00;5.13;;;4.60;;
3922;SDS011;1976;51.694;6.256;2022-12-18T16:01:27;14.27;;;8.33;;
3922;SDS011;1976;51.694;6.256;2022-12-18T16:03:55;13.17;;;8.40;;
3922;SDS011;1976;51.694;6.256;2022-12-18T16:06:21;15.03;;;8.70;;
3922;SDS011;1976;51.694;6.256;2022-12-18T16:08:47;7.97;;;5.43;;
3922;SDS011;1976;51.694;6.256;2022-12-18T16:11:20;19.47;;;9.30;;
3922;SDS011;1976;51.694;6.256;2022-12-18T16:14:08;17.53;;;12.10;;
3922;SDS011;1976;51.694;6.256;2022-12-18T16:16:44;12.40;;;7.90;;
3922;SDS011;1976;51.694;6.256;2022-12-18T16:19:11;14.30;;;9.10;;
3922;SDS011;1976;51.694;6.256;2022-12-18T16:21:37;12.20;;;8.03;;
3922;SDS011;1976;51.694;6.256;2022-12-18T16:24:03;18.10;;;10.60;;
3922;SDS011;1976;51.694;6.256;2022-12-18T16:26:31;17.23;;;9.17;;
3922;SDS011;1976;51.694;6.256;2022-12-18T16:28:57;20.10;;;12.40;;
3922;SDS011;1976;51.694;6.256;2022-12-18T16:31:23;17.83;;;9.70;;
3922;SDS011;1976;51.694;6.256;2022-12-18T16:33:48;24.20;;;11.40;;
3922;SDS011;1976;51.694;6.256;2022-12-18T16:36:14;11.53;;;6.87;;
3922;SDS011;1976;51.694;6.256;2022-12-18T16:38:39;21.60;;;13.50;;
3922;SDS011;1976;51.694;6.256;2022-12-18T16:41:17;24.30;;;14.70;;
3922;SDS011;1976;51.694;6.256;2022-12-18T16:43:56;17.73;;;8.83;;
3922;SDS011;1976;51.694;6.256;2022-12-18T16:46:21;8.27;;;6.03;;
3922;SDS011;1976;51.694;6.256;2022-12-18T16:48:47;7.00;;;5.53;;
3922;SDS011;1976;51.694;6.256;2022-12-18T16:51:13;14.23;;;9.30;;
3922;SDS011;1976;51.694;6.256;2022-12-18T16:53:38;18.67;;;7.10;;
3922;SDS011;1976;51.694;6.256;2022-12-18T16:56:04;22.03;;;13.00;;
3922;SDS011;1976;51.694;6.256;2022-12-18T16:58:30;18.27;;;10.50;;
3922;SDS011;1976;51.694;6.256;2022-12-18T17:00:55;11.90;;;6.57;;
3922;SDS011;1976;51.694;6.256;2022-12-18T17:03:21;15.13;;;9.03;;
3922;SDS011;1976;51.694;6.256;2022-12-18T17:05:46;18.37;;;9.00;;
3922;SDS011;1976;51.694;6.256;2022-12-18T17:08:12;4.57;;;4.17;;
3922;SDS011;1976;51.694;6.256;2022-12-18T17:10:38;5.73;;;5.13;;
3922;SDS011;1976;51.694;6.256;2022-12-18T17:13:04;9.73;;;6.37;;
3922;SDS011;1976;51.694;6.256;2022-12-18T17:15:29;6.77;;;4.73;;
3922;SDS011;1976;51.694;6.256;2022-12-18T17:17:58;11.23;;;5.47;;
3922;SDS011;1976;51.694;6.256;2022-12-18T17:20:24;15.10;;;10.67;;
3922;SDS011;1976;51.694;6.256;2022-12-18T17:22:50;10.97;;;8.50;;
3922;SDS011;1976;51.694;6.256;2022-12-18T17:25:15;25.80;;;13.17;;
3922;SDS011;1976;51.694;6.256;2022-12-18T17:27:41;18.40;;;12.87;;